Saturday, January 20, 2018, 8:25 AM EST
Back to Local

KDUJ, Du Bois-jefferson County

Location: Reynoldsville, PA, United States Lat: 41.183
Local Time: 8:25 AM EST (13:25 GMT) Lon: -78.883
Time Zone: US/Eastern Elev: 1820 ft

Show me the last for .
Show Decoded

2018-01-20 07:53 METAR KDUJ 201253Z AUTO 24016KT 10SM CLR M01/M06 A2992 RMK AO2 SLP148 T10061061
                 =
2018-01-20 06:53 METAR KDUJ 201153Z AUTO 23017G25KT 10SM CLR M01/M07 A2991 RMK AO2 PK WND
                 25026/1143 SLP145 T10061067 10000 21006 53008 =
2018-01-20 05:53 METAR KDUJ 201053Z AUTO 24015G21KT 10SM CLR M01/M07 A2989 RMK AO2 SLP140
                 T10061072 =
2018-01-20 04:53 METAR KDUJ 200953Z AUTO 23014KT 10SM CLR M01/M08 A2989 RMK AO2 SLP137 T10061078
                 =
2018-01-20 03:53 METAR KDUJ 200853Z AUTO 23015KT 10SM CLR M01/M08 A2988 RMK AO2 PK WND 22026/0802
                 SLP135 T10061083 53003 =
2018-01-20 01:53 METAR KDUJ 200653Z AUTO 23015G25KT 10SM CLR M01/M08 A2987 RMK AO2 SLP131
                 T10061083 =
2018-01-20 00:53 METAR KDUJ 200553Z AUTO 23013G19KT 10SM CLR M01/M09 A2987 RMK AO2 SLP134
                 T10061089 10000 21011 58012 =
2018-01-19 23:53 METAR KDUJ 200453Z AUTO 23014KT 10SM CLR M01/M09 A2989 RMK AO2 SLP141 T10061089
                 400111083 =
2018-01-19 22:53 METAR KDUJ 200353Z AUTO 22012KT 10SM CLR M01/M09 A2990 RMK AO2 SLP145 T10061089
                 =
2018-01-19 21:53 METAR KDUJ 200253Z AUTO 23012KT 10SM CLR M01/M09 A2991 RMK AO2 SLP150 T10061089
                 58007 =
2018-01-19 20:53 METAR KDUJ 200153Z AUTO 23012KT 10SM CLR 00/M09 A2992 RMK AO2 SLP153 T00001089 =
2018-01-19 19:53 METAR KDUJ 200053Z AUTO 23012KT 10SM CLR M01/M09 A2993 RMK AO2 SLP158 T10061089
                 =
2018-01-19 18:53 METAR KDUJ 192353Z AUTO 23010KT 10SM CLR M01/M09 A2993 RMK AO2 SLP159 T10061089
                 10011 21017 50001 =
2018-01-19 17:53 METAR KDUJ 192253Z AUTO 22007KT 10SM CLR M01/M09 A2994 RMK AO2 SLP162 T10061089
                 =
2018-01-19 16:53 METAR KDUJ 192153Z AUTO 23009KT 10SM CLR 01/M09 A2994 RMK AO2 SLP160 T00061089 =
2018-01-19 15:53 METAR KDUJ 192053Z AUTO 23015G20KT 10SM CLR 01/M09 A2993 RMK AO2 SLP156
                 T00111089 56010 =
2018-01-19 14:53 METAR KDUJ 191953Z AUTO 22012KT 10SM CLR 01/M09 A2994 RMK AO2 SLP160 T00061089 =
2018-01-19 13:53 METAR KDUJ 191853Z AUTO 23015G23KT 10SM CLR M01/M09 A2994 RMK AO2 SLP163
                 T10061094 =
2018-01-19 12:53 METAR KDUJ 191753Z AUTO 23015G21KT 10SM CLR M02/M10 A2996 RMK AO2 SLP169
                 T10171100 11017 21078 58019 =
2018-01-19 11:53 METAR KDUJ 191653Z AUTO 24016KT 10SM CLR M03/M10 A2999 RMK AO2 SLP180 T10281100
                 =
2018-01-19 10:53 METAR KDUJ 191553Z AUTO 23012G26KT 10SM CLR M04/M11 A3001 RMK AO2 PK WND
                 24026/1549 SLP186 T10391111 =
2018-01-19 09:53 METAR KDUJ 191453Z AUTO 23013G20KT 10SM CLR M06/M12 A3002 RMK AO2 SLP192
                 T10561117 53005 =
2018-01-19 08:53 METAR KDUJ 191353Z AUTO 24013KT 10SM CLR M07/M13 A3001 RMK AO2 SLP192 T10721128
                 =

Support USWX by starting your Amazon purchase here.